Time;durP1;ratioP1;P1;durP2;ratioP2;P2;SDS_P1;SDS_P2;PMS_P1;PMS_P2;Temp;Humidity;BMP_temperature;BMP_pressure;BME280_temperature;BME280_humidity;BME280_pressure;Samples;Min_cycle;Max_cycle;Signal;HPM_P1;HPM_P2
2022/05/02 00:00:42;;;;;;;27.55;14.60;;;;;;;6.87;77.97;102132.59;4990710;28;20045;-66
2022/05/02 00:03:09;;;;;;;25.10;13.48;;;;;;;6.82;78.22;102134.50;4987368;28;20042;-66
2022/05/02 00:05:34;;;;;;;23.48;14.15;;;;;;;6.82;77.71;102138.94;4990522;28;20041;-67
2022/05/02 00:08:00;;;;;;;22.20;12.98;;;;;;;6.75;78.77;102138.25;4989655;28;20207;-67
2022/05/02 00:10:25;;;;;;;27.88;14.35;;;;;;;6.73;78.59;102142.72;4989047;28;20402;-66
2022/05/02 00:12:51;;;;;;;22.45;12.60;;;;;;;6.63;78.63;102135.94;4973029;28;20045;-66
2022/05/02 00:15:16;;;;;;;26.20;14.32;;;;;;;6.59;79.04;102131.63;4989578;28;20049;-67
2022/05/02 00:17:57;;;;;;;25.70;13.70;;;;;;;6.68;78.30;102136.69;4990322;28;20048;-66
2022/05/02 00:20:26;;;;;;;30.98;13.43;;;;;;;6.80;78.63;102125.75;4989767;28;20040;-67
2022/05/02 00:22:51;;;;;;;24.08;13.30;;;;;;;6.84;77.92;102122.09;4989539;28;20045;-66
2022/05/02 00:25:17;;;;;;;28.58;13.68;;;;;;;6.70;77.78;102122.47;4988875;28;20038;-66
2022/05/02 00:27:43;;;;;;;27.73;14.45;;;;;;;6.94;77.79;102114.78;4989603;28;20104;-67
2022/05/02 00:30:11;;;;;;;24.70;13.18;;;;;;;6.88;77.89;102117.59;4989661;28;20101;-67
2022/05/02 00:32:37;;;;;;;21.67;11.77;;;;;;;6.57;79.16;102105.13;4990121;28;20143;-67
2022/05/02 00:35:04;;;;;;;21.58;11.35;;;;;;;6.61;78.32;102111.22;4988429;28;20767;-67
2022/05/02 00:37:29;;;;;;;20.70;11.18;;;;;;;6.59;78.65;102105.13;4990065;28;20041;-67
2022/05/02 00:39:55;;;;;;;22.40;12.40;;;;;;;6.63;78.25;102102.34;4989730;28;20046;-67
2022/05/02 00:42:20;;;;;;;24.00;13.73;;;;;;;6.73;78.38;102106.50;4990367;28;20045;-66
2022/05/02 00:44:46;;;;;;;30.63;13.73;;;;;;;6.69;78.59;102102.19;4991863;28;20049;-66
2022/05/02 00:47:15;;;;;;;24.60;13.25;;;;;;;6.74;77.88;102104.72;4990518;28;20592;-66
2022/05/02 00:49:41;;;;;;;23.30;13.93;;;;;;;6.75;78.87;102106.44;4991734;28;20483;-67
2022/05/02 00:52:07;;;;;;;27.10;13.65;;;;;;;6.56;79.14;102099.88;4990920;28;20069;-66
2022/05/02 00:54:34;;;;;;;26.52;13.73;;;;;;;6.65;78.96;102099.66;4973697;28;20251;-66
2022/05/02 00:56:59;;;;;;;23.90;13.40;;;;;;;6.71;77.96;102099.47;4991373;28;20826;-67
2022/05/02 00:59:27;;;;;;;26.95;13.48;;;;;;;6.56;78.59;102097.22;4990560;28;20038;-67
2022/05/02 01:01:53;;;;;;;25.08;13.32;;;;;;;6.55;79.08;102100.81;4991946;28;20037;-67
2022/05/02 01:04:18;;;;;;;22.27;13.43;;;;;;;6.66;79.20;102101.38;4990715;28;20139;-66
2022/05/02 01:09:29;;;;;;;28.13;13.50;;;;;;;6.71;77.95;102099.47;4989870;28;20921;-67
2022/05/02 01:11:55;;;;;;;26.40;13.57;;;;;;;6.79;78.72;102101.94;4969161;28;20042;-67
2022/05/02 01:14:20;;;;;;;31.45;13.98;;;;;;;6.74;78.17;102096.75;4973529;28;20136;-67
2022/05/02 01:16:46;;;;;;;23.08;13.43;;;;;;;6.73;77.64;102095.03;4994394;28;20176;-67
2022/05/02 01:19:12;;;;;;;23.98;13.20;;;;;;;6.56;78.34;102091.94;4993747;28;20046;-66
2022/05/02 01:21:38;;;;;;;27.02;14.05;;;;;;;6.65;78.33;102097.00;4993038;28;20054;-66
2022/05/02 01:24:04;;;;;;;22.45;13.13;;;;;;;6.63;78.34;102099.69;4992709;28;20034;-67
2022/05/02 01:26:30;;;;;;;23.90;13.68;;;;;;;6.61;78.48;102090.03;4994043;28;20044;-66
2022/05/02 01:28:58;;;;;;;24.52;14.15;;;;;;;6.61;78.25;102095.34;4994180;28;20038;-67
2022/05/02 01:31:24;;;;;;;19.98;12.38;;;;;;;6.57;78.26;102099.84;4975626;28;20497;-66
2022/05/02 01:33:50;;;;;;;21.83;12.52;;;;;;;6.52;79.12;102092.91;4992666;28;20565;-66
2022/05/02 01:36:17;;;;;;;28.33;13.55;;;;;;;6.43;79.28;102092.28;4992836;28;20042;-66
2022/05/02 01:38:42;;;;;;;23.85;12.18;;;;;;;6.44;79.40;102093.13;4992098;28;20510;-66
2022/05/02 01:41:08;;;;;;;25.73;12.98;;;;;;;6.38;79.10;102094.16;4992204;28;20061;-67
2022/05/02 01:43:34;;;;;;;26.63;13.05;;;;;;;6.43;78.65;102096.72;4993356;28;20038;-66
2022/05/02 01:46:01;;;;;;;22.98;12.63;;;;;;;6.31;79.64;102087.28;4993402;28;20238;-67
2022/05/02 01:48:27;;;;;;;30.38;13.98;;;;;;;6.23;80.02;102089.25;4975389;28;20038;-66
2022/05/02 01:50:53;;;;;;;24.95;12.95;;;;;;;6.28;79.35;102089.16;4992169;28;20053;-67
2022/05/02 01:53:18;;;;;;;24.67;13.90;;;;;;;6.30;79.73;102088.19;4991991;28;20041;-67
2022/05/02 01:55:44;;;;;;;22.73;13.40;;;;;;;6.26;78.80;102094.47;4993274;28;20887;-67
2022/05/02 01:58:10;;;;;;;23.70;13.57;;;;;;;6.19;79.33;102088.47;4993538;28;20041;-66
2022/05/02 02:00:35;;;;;;;21.38;13.48;;;;;;;6.13;79.11;102085.97;4993093;28;20041;-67
2022/05/02 02:03:00;;;;;;;28.15;13.25;;;;;;;6.16;78.80;102092.97;4993040;28;20156;-67
2022/05/02 02:08:10;;;;;;;25.95;14.07;;;;;;;5.91;80.44;102090.91;4991465;28;20077;-67
2022/05/02 02:10:36;;;;;;;24.63;14.75;;;;;;;5.88;80.75;102084.81;4975231;28;20046;-67
2022/05/02 02:13:01;;;;;;;21.38;12.40;;;;;;;5.85;80.34;102084.88;4973376;28;20046;-66
2022/05/02 02:15:27;;;;;;;23.08;13.27;;;;;;;5.71;81.08;102087.81;4974166;28;20035;-66
2022/05/02 02:17:52;;;;;;;24.15;13.73;;;;;;;5.72;80.81;102086.91;4974173;28;20535;-66
2022/05/02 02:20:18;;;;;;;26.27;13.48;;;;;;;5.70;81.68;102083.44;4973592;28;20042;-66
2022/05/02 02:22:43;;;;;;;28.40;14.60;;;;;;;5.74;81.55;102081.59;4973129;28;20451;-66
2022/05/02 02:25:09;;;;;;;19.95;12.73;;;;;;;5.69;81.24;102068.47;4954495;28;20742;-66
2022/05/02 02:27:34;;;;;;;27.05;14.35;;;;;;;5.75;81.13;102076.28;4973463;28;20038;-66
2022/05/02 02:30:00;;;;;;;25.55;14.27;;;;;;;5.86;80.94;102076.88;4973675;28;20378;-66
2022/05/02 02:32:26;;;;;;;26.45;13.80;;;;;;;5.68;80.59;102072.91;4972027;28;20053;-66
2022/05/02 02:34:52;;;;;;;23.67;13.45;;;;;;;5.61;81.27;102070.41;4972623;28;20109;-66
2022/05/02 02:37:17;;;;;;;30.02;14.05;;;;;;;5.72;81.35;102061.34;4971889;28;20896;-66
2022/05/02 02:39:43;;;;;;;28.83;13.95;;;;;;;5.71;80.99;102067.53;4986253;28;20808;-66
2022/05/02 02:42:08;;;;;;;25.85;13.93;;;;;;;5.61;80.77;102071.28;4991382;28;20120;-66
2022/05/02 02:44:34;;;;;;;26.75;14.00;;;;;;;5.64;81.37;102070.38;4992305;28;20049;-66
2022/05/02 02:47:00;;;;;;;21.48;13.27;;;;;;;5.55;80.87;102063.50;4991656;28;20038;-66
2022/05/02 02:49:25;;;;;;;23.90;12.95;;;;;;;5.49;80.09;102062.78;4991015;28;20149;-66
2022/05/02 02:51:51;;;;;;;26.52;13.77;;;;;;;5.55;80.96;102063.50;4990704;28;20072;-66
2022/05/02 02:54:16;;;;;;;22.48;12.65;;;;;;;5.45;80.92;102054.91;4990679;28;20368;-66
2022/05/02 02:56:42;;;;;;;27.60;13.65;;;;;;;5.40;81.33;102048.84;4990555;28;20494;-66
2022/05/02 02:59:07;;;;;;;25.10;14.40;;;;;;;5.37;80.98;102056.88;4990315;28;20046;-66
2022/05/02 03:01:33;;;;;;;29.58;15.48;;;;;;;5.38;80.47;102049.78;4990345;28;20041;-66
2022/05/02 03:03:58;;;;;;;24.42;13.45;;;;;;;5.34;80.86;102059.56;4990698;28;20037;-66
2022/05/02 03:06:24;;;;;;;26.48;14.35;;;;;;;5.25;81.60;102054.47;4990324;28;20034;-66
2022/05/02 03:08:50;;;;;;;26.67;13.25;;;;;;;5.20;81.48;102051.06;4989870;28;20045;-66
2022/05/02 03:11:16;;;;;;;24.02;13.40;;;;;;;5.10;81.30;102047.75;4988243;28;20889;-66
2022/05/02 03:13:41;;;;;;;21.83;13.65;;;;;;;5.08;82.12;102049.56;4990450;28;20846;-66
2022/05/02 03:16:07;;;;;;;27.35;15.05;;;;;;;5.06;82.34;102042.53;4991023;28;20706;-66
2022/05/02 03:18:34;;;;;;;25.98;14.25;;;;;;;5.03;82.55;102043.50;4991133;28;20034;-66
2022/05/02 03:21:00;;;;;;;21.88;13.15;;;;;;;5.05;81.41;102036.38;4990588;28;20049;-66
2022/05/02 03:23:26;;;;;;;21.38;13.30;;;;;;;4.90;82.31;102042.88;4990752;28;20049;-66
2022/05/02 03:25:52;;;;;;;28.17;14.52;;;;;;;4.94;82.16;102044.53;4972142;28;20092;-66
2022/05/02 03:28:17;;;;;;;28.73;13.95;;;;;;;4.90;82.91;102040.22;4990902;28;20706;-66
2022/05/02 03:30:43;;;;;;;24.15;14.35;;;;;;;4.87;82.53;102048.22;4992367;28;20438;-66
2022/05/02 03:33:08;;;;;;;25.80;13.73;;;;;;;4.71;81.81;102044.13;4991689;28;20041;-66
2022/05/02 03:35:34;;;;;;;23.00;13.27;;;;;;;4.66;82.23;102044.22;4991168;28;20076;-66
2022/05/02 03:37:59;;;;;;;26.08;14.63;;;;;;;4.78;81.55;102043.13;4990774;28;20048;-66
2022/05/02 03:40:25;;;;;;;31.25;14.13;;;;;;;4.66;82.41;102038.06;4989802;28;20347;-66
2022/05/02 03:42:50;;;;;;;23.48;13.35;;;;;;;4.60;83.25;102035.56;4955743;28;1014584;-66
2022/05/02 03:45:16;;;;;;;23.20;13.75;;;;;;;4.66;82.53;102041.56;4990931;28;20041;-66
2022/05/02 03:47:41;;;;;;;25.10;13.88;;;;;;;4.72;82.38;102037.97;4993132;28;20038;-66
2022/05/02 03:50:07;;;;;;;31.00;14.88;;;;;;;4.78;81.73;102043.13;4988789;28;20050;-66
2022/05/02 03:52:32;;;;;;;27.35;15.00;;;;;;;4.71;83.17;102040.63;4968926;28;20042;-66
2022/05/02 03:54:58;;;;;;;26.75;14.65;;;;;;;4.52;83.67;102035.72;4989679;28;20038;-66
2022/05/02 03:57:23;;;;;;;25.98;12.70;;;;;;;4.53;83.03;102032.16;4990268;28;20558;-66
2022/05/02 03:59:49;;;;;;;29.15;14.40;;;;;;;4.48;83.31;102039.31;4990154;28;20049;-66
2022/05/02 04:02:14;;;;;;;28.10;14.93;;;;;;;4.55;83.25;102032.13;4989149;28;20049;-65
2022/05/02 04:04:39;;;;;;;28.27;14.75;;;;;;;4.56;84.04;102032.09;4984062;28;20041;-66
2022/05/02 04:07:05;;;;;;;30.75;14.77;;;;;;;4.51;83.66;102038.38;4972712;28;20052;-66
2022/05/02 04:09:31;;;;;;;26.05;13.13;;;;;;;4.58;82.83;102037.38;4990937;28;20056;-66
2022/05/02 04:11:59;;;;;;;27.23;14.25;;;;;;;4.50;83.32;102041.91;4990117;28;20080;-66
2022/05/02 04:14:24;;;;;;;21.35;13.02;;;;;;;4.40;82.65;102041.22;4991051;28;20042;-66
2022/05/02 04:16:50;;;;;;;21.60;12.82;;;;;;;4.45;82.09;102044.63;4991995;28;20037;-66
2022/05/02 04:19:16;;;;;;;24.73;13.30;;;;;;;4.48;83.08;102033.16;4972502;28;20038;-66
2022/05/02 04:21:42;;;;;;;26.13;13.52;;;;;;;4.56;82.51;102036.50;4980197;28;20053;-66
2022/05/02 04:24:07;;;;;;;27.80;14.15;;;;;;;4.55;82.18;102034.78;4970650;28;20796;-66
2022/05/02 04:26:33;;;;;;;26.33;13.93;;;;;;;4.54;82.69;102038.31;4970240;28;20045;-66
2022/05/02 04:28:59;;;;;;;25.77;12.85;;;;;;;4.52;82.79;102038.34;4985986;28;20038;-66
2022/05/02 04:31:24;;;;;;;27.73;13.40;;;;;;;4.60;82.84;102038.19;4990072;28;20037;-66
2022/05/02 04:33:50;;;;;;;29.48;15.25;;;;;;;4.47;84.12;102037.56;4989617;28;20037;-66
2022/05/02 04:36:16;;;;;;;25.58;13.55;;;;;;;4.73;83.48;102044.13;4991500;28;20037;-67
2022/05/02 04:38:41;;;;;;;27.67;13.75;;;;;;;5.27;81.67;102031.53;4990280;28;20060;-66
2022/05/02 04:41:07;;;;;;;27.58;14.20;;;;;;;5.65;79.99;102045.63;4984450;28;20046;-67
2022/05/02 04:43:32;;;;;;;26.67;14.20;;;;;;;5.38;79.46;102044.50;4970050;28;20038;-66
2022/05/02 04:45:58;;;;;;;23.85;13.40;;;;;;;5.27;80.72;102036.81;4969487;28;20049;-66
2022/05/02 04:48:24;;;;;;;24.83;13.75;;;;;;;5.71;80.35;102043.69;4972351;28;20038;-66
2022/05/02 04:50:49;;;;;;;25.08;12.15;;;;;;;6.25;77.65;102044.19;4975492;28;20054;-66
2022/05/02 04:53:14;;;;;;;20.83;12.20;;;;;;;6.41;77.88;102046.38;4974397;28;20038;-66
2022/05/02 04:55:40;;;;;;;28.10;13.85;;;;;;;6.79;75.65;102041.81;4973911;28;20268;-67
2022/05/02 04:58:06;;;;;;;25.88;13.38;;;;;;;7.16;75.55;102043.41;4974124;28;20042;-66
2022/05/02 05:00:31;;;;;;;22.83;13.18;;;;;;;7.59;73.32;102039.44;4975140;28;20054;-67
2022/05/02 05:02:56;;;;;;;21.80;12.50;;;;;;;7.75;72.71;102044.19;4973790;28;20038;-67
2022/05/02 05:05:22;;;;;;;26.20;13.40;;;;;;;7.81;72.29;102040.47;4973912;28;20078;-66
2022/05/02 05:07:47;;;;;;;24.63;12.77;;;;;;;7.61;72.40;102042.91;4975264;28;20038;-66
2022/05/02 05:10:13;;;;;;;21.30;12.50;;;;;;;7.39;73.36;102046.25;4971436;28;20049;-66
2022/05/02 05:12:47;;;;;;;23.27;12.25;;;;;;;8.04;71.56;102035.28;4974684;28;20035;-67
2022/05/02 05:18:50;;;;;;;19.83;12.18;;;;;;;8.68;69.99;102028.66;4972022;28;20121;-66
2022/05/02 05:21:37;;;;;;;;;;;;;;;9.01;68.70;102039.84;4973884;28;20038;-66
2022/05/02 05:24:27;;;;;;;18.67;11.48;;;;;;;8.98;68.60;102043.47;4968405;28;20645;-66
2022/05/02 05:27:12;;;;;;;16.10;10.63;;;;;;;9.32;67.75;102042.19;4968613;28;20105;-66
2022/05/02 05:30:03;;;;;;;17.60;10.95;;;;;;;8.93;68.80;102044.56;4973422;28;20134;-66
2022/05/02 05:32:49;;;;;;;18.00;11.48;;;;;;;9.28;68.29;102038.78;4971208;28;20030;-66
2022/05/02 05:35:23;;;;;;;21.77;11.30;;;;;;;9.37;68.11;102045.53;4952806;28;20886;-67
2022/05/02 05:37:59;;;;;;;20.98;11.77;;;;;;;9.22;69.04;102035.50;4969603;28;20034;-66
2022/05/02 05:42:54;;;;;;;19.85;11.80;;;;;;;9.57;68.46;102032.31;4980969;23;20567;-68
2022/05/02 05:45:29;;;;;;;20.05;12.48;;;;;;;9.28;69.43;102037.91;4975444;28;20046;-68
2022/05/02 05:48:39;;;;;;;19.70;11.68;;;;;;;9.49;68.61;102036.22;4976007;28;20035;-68
2022/05/02 05:51:38;;;;;;;22.83;12.10;;;;;;;9.34;69.58;102045.69;4976410;28;20041;-68
2022/05/02 05:54:18;;;;;;;17.60;11.02;;;;;;;10.16;68.00;102037.91;4977027;28;21442;-68
2022/05/02 05:57:08;;;;;;;19.83;11.85;;;;;;;10.17;67.20;102045.84;4960215;28;20042;-68
2022/05/02 05:59:37;;;;;;;17.55;11.52;;;;;;;10.11;67.12;102046.09;4961100;28;20053;-69
2022/05/02 06:02:08;;;;;;;18.23;11.43;;;;;;;9.85;68.42;102044.53;4977693;28;20046;-68
2022/05/02 06:04:35;;;;;;;18.42;11.15;;;;;;;9.85;68.32;102053.38;4960997;28;20114;-68
2022/05/02 06:07:00;;;;;;;19.30;11.70;;;;;;;10.04;68.26;102048.16;4960248;28;20591;-68
2022/05/02 06:09:31;;;;;;;23.00;11.90;;;;;;;10.65;67.16;102046.50;4978061;28;20042;-69
2022/05/02 06:11:58;;;;;;;17.75;11.18;;;;;;;10.77;66.22;102044.13;4977969;28;20840;-68
2022/05/02 06:14:30;;;;;;;22.20;12.02;;;;;;;10.52;66.70;102039.03;4977846;28;20089;-69
2022/05/02 06:19:45;;;;;;;18.52;11.52;;;;;;;11.10;65.47;102044.41;4978391;28;20041;-69
2022/05/02 06:22:12;;;;;;;24.75;12.20;;;;;;;11.59;64.38;102044.75;4963665;28;20061;-69
2022/05/02 06:24:44;;;;;;;19.55;11.27;;;;;;;11.84;63.44;102051.59;4958222;28;20109;-69
2022/05/02 06:27:10;;;;;;;21.00;12.07;;;;;;;11.62;64.79;102044.59;4966180;28;20045;-69
2022/05/02 06:29:39;;;;;;;18.05;10.80;;;;;;;11.24;65.03;102043.75;4978103;28;20056;-68
2022/05/02 06:32:10;;;;;;;16.35;11.15;;;;;;;11.36;64.79;102043.19;4976124;28;20042;-68
2022/05/02 06:34:37;;;;;;;19.45;11.85;;;;;;;11.96;64.56;102042.13;4975955;28;20149;-68
2022/05/02 06:37:10;;;;;;;20.75;11.77;;;;;;;11.89;62.95;102046.88;4959944;28;20478;-68
2022/05/02 06:39:50;;;;;;;16.75;11.20;;;;;;;12.06;64.08;102036.25;4977172;28;20044;-68
2022/05/02 06:42:39;;;;;;;18.48;12.52;;;;;;;12.34;63.19;102033.00;4958250;28;20942;-68
2022/05/02 06:45:29;;;;;;;19.63;12.07;;;;;;;12.94;62.84;102038.72;4976966;28;20042;-69
2022/05/02 06:47:54;;;;;;;15.48;9.68;;;;;;;12.06;62.29;102036.25;4978418;28;20080;-69
2022/05/02 06:50:24;;;;;;;17.95;11.30;;;;;;;12.08;63.14;102029.00;4977673;28;20034;-69
2022/05/02 06:53:10;;;;;;;18.25;11.68;;;;;;;12.28;62.34;102032.47;4977622;28;20782;-69
2022/05/02 06:55:51;;;;;;;17.15;11.02;;;;;;;12.25;61.82;102032.59;4976420;28;20117;-69
2022/05/02 06:58:54;;;;;;;22.55;12.35;;;;;;;12.25;62.71;102030.81;4974446;28;20801;-69
2022/05/02 07:01:36;;;;;;;;;;;;;;;12.99;61.64;102037.63;4957296;28;20050;-69
2022/05/02 07:04:26;;;;;;;19.45;11.68;;;;;;;13.38;61.93;102032.78;4974629;28;19922;-68
2022/05/02 07:07:20;;;;;;;19.02;10.20;;;;;;;13.52;61.81;102026.66;4974583;28;20042;-69
2022/05/02 07:09:50;;;;;;;15.73;10.40;;;;;;;13.96;59.65;102023.22;4974239;28;20038;-69
2022/05/02 07:12:23;;;;;;;19.13;11.77;;;;;;;13.90;58.09;102024.44;4957457;28;20046;-69
2022/05/02 07:15:20;;;;;;;15.95;10.40;;;;;;;13.87;57.52;102015.72;4957872;28;20064;-68
2022/05/02 07:18:05;;;;;;;16.58;10.20;;;;;;;14.24;57.92;102026.00;4975501;28;20465;-68
2022/05/02 07:20:39;;;;;;;18.20;10.23;;;;;;;14.45;55.96;102029.19;4975568;28;20046;-68
2022/05/02 07:23:42;;;;;;;16.50;9.93;;;;;;;14.58;55.76;102021.31;4939070;28;20043;-68
2022/05/02 07:26:12;;;;;;;18.42;11.32;;;;;;;14.89;56.84;102022.09;4955357;28;20046;-68
2022/05/02 07:28:46;;;;;;;13.05;9.77;;;;;;;14.70;55.30;102023.22;4955511;28;20661;-68
2022/05/02 07:31:14;;;;;;;25.27;11.07;;;;;;;15.18;55.27;102029.16;4957950;28;20070;-68
2022/05/02 07:33:40;;;;;;;19.27;10.68;;;;;;;15.67;53.53;102022.47;4973790;28;20084;-68
2022/05/02 07:36:06;;;;;;;13.90;9.13;;;;;;;14.70;54.04;102020.53;4974873;28;20120;-68
2022/05/02 07:38:34;;;;;;;14.60;10.43;;;;;;;14.98;56.81;102021.50;4972081;28;20777;-67
2022/05/02 07:41:22;;;;;;;14.63;10.23;;;;;;;15.78;53.15;102025.31;4971815;28;20038;-68
2022/05/02 07:44:01;;;;;;;14.63;9.55;;;;;;;15.76;52.80;102029.91;4974969;28;20042;-68
2022/05/02 07:46:38;;;;;;;13.35;9.52;;;;;;;15.73;53.50;102024.75;4953447;28;20457;-68
2022/05/02 07:49:05;;;;;;;17.10;9.75;;;;;;;15.20;54.59;102031.75;4975044;28;20042;-68
2022/05/02 07:51:32;;;;;;;13.45;9.02;;;;;;;15.99;51.82;102020.31;4976412;28;20038;-67
2022/05/02 07:53:59;;;;;;;14.27;9.60;;;;;;;15.64;51.95;102034.28;4976293;28;20034;-66
2022/05/02 07:56:28;;;;;;;13.65;8.40;;;;;;;15.46;51.65;102030.97;4974503;28;20129;-69
2022/05/02 07:58:55;;;;;;;14.10;9.65;;;;;;;15.80;52.15;102026.06;4974886;28;20802;-66
2022/05/02 08:01:22;;;;;;;16.45;9.32;;;;;;;16.16;52.35;102024.56;4956875;28;20768;-67
2022/05/02 08:03:48;;;;;;;10.70;8.30;;;;;;;16.08;51.67;102016.16;4974748;28;20053;-67
2022/05/02 08:06:17;;;;;;;12.98;8.70;;;;;;;16.67;50.77;102021.94;4974318;28;20042;-69
2022/05/02 08:09:06;;;;;;;10.88;7.10;;;;;;;16.01;49.42;102015.69;4974314;28;20045;-69
2022/05/02 08:12:10;;;;;;;13.07;8.23;;;;;;;16.04;50.64;102019.03;4925930;28;20056;-69
2022/05/02 08:15:00;;;;;;;12.93;8.50;;;;;;;15.79;50.79;102016.28;4973544;28;20045;-67
2022/05/02 08:17:56;;;;;;;13.57;8.23;;;;;;;15.70;48.28;102020.44;4974332;28;20043;-67
2022/05/02 08:20:50;;;;;;;11.48;7.90;;;;;;;15.95;48.55;102016.09;4971421;28;20077;-69
2022/05/02 08:29:48;;;;;;;12.65;8.27;;;;;;;15.44;47.53;102021.25;4966397;28;20077;-66
2022/05/02 08:32:35;;;;;;;17.05;8.88;;;;;;;15.34;51.09;102015.59;4971889;28;20920;-66
2022/05/02 08:35:16;;;;;;;20.17;9.77;;;;;;;15.54;50.40;102020.56;4972672;28;20053;-68
2022/05/02 08:37:49;;;;;;;14.57;8.27;;;;;;;16.12;48.28;102010.47;4956388;28;20042;-69
2022/05/02 08:40:24;;;;;;;12.43;7.90;;;;;;;15.95;48.99;102008.91;4971156;28;20034;-66
2022/05/02 08:43:08;;;;;;;12.32;8.38;;;;;;;16.06;47.28;102018.94;4973169;28;20065;-68
2022/05/02 08:45:55;;;;;;;12.60;8.43;;;;;;;15.70;47.20;102007.00;4971477;28;20034;-68
2022/05/02 08:48:30;;;;;;;14.52;8.88;;;;;;;15.64;49.69;102011.91;4970126;28;20046;-68
2022/05/02 08:51:38;;;;;;;13.05;8.55;;;;;;;15.88;47.29;102001.38;4969855;28;20918;-69
2022/05/02 08:54:32;;;;;;;15.05;9.40;;;;;;;15.25;47.53;102006.31;4969358;28;20048;-68
2022/05/02 08:57:20;;;;;;;16.95;9.23;;;;;;;15.29;47.42;102013.22;4970180;28;21023;-69
2022/05/02 09:00:09;;;;;;;13.38;7.95;;;;;;;15.48;46.77;102001.28;4971861;28;20137;-68
2022/05/02 09:03:02;;;;;;;11.88;8.55;;;;;;;15.73;45.52;102008.63;4953047;28;20392;-68
2022/05/02 09:06:09;;;;;;;14.07;8.25;;;;;;;15.84;47.46;101991.78;4970075;28;20141;-67
2022/05/02 09:09:09;;;;;;;16.15;8.95;;;;;;;15.88;46.69;101993.28;4957456;28;20089;-67
2022/05/02 09:12:08;;;;;;;17.05;9.25;;;;;;;15.71;47.97;102002.47;4958271;28;20042;-67
2022/05/02 09:14:43;;;;;;;14.25;9.40;;;;;;;15.60;46.13;101999.59;4963796;28;20042;-67
2022/05/02 09:17:29;;;;;;;12.43;8.85;;;;;;;15.32;46.57;102008.63;4964314;28;20152;-67
2022/05/02 09:20:06;;;;;;;13.57;8.60;;;;;;;15.78;46.80;101996.59;4963553;28;20399;-66
2022/05/02 09:22:53;;;;;;;15.10;8.85;;;;;;;15.88;45.72;101990.59;4966802;28;20065;-66
2022/05/02 09:25:41;;;;;;;14.43;8.38;;;;;;;15.96;44.72;101999.00;4963929;28;20052;-66
2022/05/02 09:28:40;;;;;;;15.23;8.60;;;;;;;16.15;47.34;101987.84;4962517;28;20486;-68
2022/05/02 09:31:24;;;;;;;14.93;10.00;;;;;;;16.01;43.71;101988.78;4965122;28;20065;-69
2022/05/02 09:34:17;;;;;;;16.42;10.43;;;;;;;16.54;46.36;101993.16;4956114;28;20077;-68
2022/05/02 09:36:54;;;;;;;19.35;10.45;;;;;;;16.69;44.46;101988.53;4957392;28;20813;-68
2022/05/02 09:39:30;;;;;;;19.30;9.80;;;;;;;16.30;44.15;101984.97;4967098;28;20046;-68
2022/05/02 09:42:14;;;;;;;17.30;9.80;;;;;;;16.59;44.59;101984.78;4964713;28;20745;-68
2022/05/02 09:51:27;;;;;;;17.35;9.75;;;;;;;16.00;44.50;101987.94;4966407;28;20085;-68
2022/05/02 09:54:05;;;;;;;16.48;10.15;;;;;;;17.34;45.77;101976.69;4975241;28;20046;-68
2022/05/02 09:56:40;;;;;;;18.55;11.30;;;;;;;17.23;46.89;101974.78;4975585;28;20120;-69
2022/05/02 09:59:21;;;;;;;18.65;10.75;;;;;;;17.34;43.50;101974.84;4975139;28;20056;-67
2022/05/02 10:01:50;;;;;;;14.60;9.88;;;;;;;17.09;40.48;101964.16;4976443;28;20046;-69
2022/05/02 10:04:21;;;;;;;12.30;9.18;;;;;;;17.59;41.82;101960.41;4975085;28;20586;-67
2022/05/02 10:06:54;;;;;;;13.70;9.00;;;;;;;16.64;43.63;101977.22;4975796;28;20065;-68
2022/05/02 10:09:56;;;;;;;17.13;10.38;;;;;;;16.89;46.55;101972.81;4976174;28;20042;-67
2022/05/02 10:12:45;;;;;;;19.55;10.48;;;;;;;16.60;43.31;101975.72;4975661;28;20884;-68
2022/05/02 10:15:33;;;;;;;15.75;10.00;;;;;;;17.01;41.26;101964.69;4976284;28;20035;-68
2022/05/02 10:18:24;;;;;;;17.77;10.40;;;;;;;16.52;44.31;101967.34;4977265;28;20053;-68
2022/05/02 10:21:04;;;;;;;16.27;10.80;;;;;;;16.66;41.67;101963.63;4954896;28;20555;-68
2022/05/02 10:23:54;;;;;;;17.20;9.57;;;;;;;16.90;44.32;101964.63;4956687;28;20051;-67
2022/05/02 10:26:31;;;;;;;17.13;10.25;;;;;;;16.86;43.73;101960.41;4956314;28;20734;-69
2022/05/02 10:29:36;;;;;;;17.08;10.63;;;;;;;17.50;43.08;101960.22;4956375;28;20066;-68
2022/05/02 10:32:32;;;;;;;16.98;10.30;;;;;;;17.01;47.02;101958.44;4954912;28;20077;-69
2022/05/02 10:35:02;;;;;;;21.25;10.63;;;;;;;17.14;44.12;101958.44;4955213;28;20071;-65
2022/05/02 10:37:33;;;;;;;15.40;10.20;;;;;;;17.08;42.85;101954.34;4939065;28;20151;-69
2022/05/02 10:40:12;;;;;;;14.77;10.07;;;;;;;17.18;41.34;101943.75;4971313;28;20038;-69
2022/05/02 10:42:45;;;;;;;15.70;9.70;;;;;;;17.07;41.08;101941.84;4974522;28;20823;-70
2022/05/02 10:45:11;;;;;;;14.00;9.98;;;;;;;17.37;43.51;101938.72;4974583;28;20054;-70
2022/05/02 10:47:44;;;;;;;18.92;10.45;;;;;;;16.72;42.17;101939.03;4956147;28;20797;-69
2022/05/02 10:50:27;;;;;;;17.23;10.60;;;;;;;17.89;42.34;101933.94;4956784;28;20050;-71
2022/05/02 10:53:08;;;;;;;17.17;10.48;;;;;;;17.69;41.94;101930.03;4974429;28;20066;-70
2022/05/02 10:55:39;;;;;;;18.43;10.13;;;;;;;17.30;41.00;101934.75;4974307;28;20468;-69
2022/05/02 10:58:08;;;;;;;19.38;11.23;;;;;;;17.85;43.58;101933.31;4973291;28;20559;-71
2022/05/02 11:00:46;;;;;;;17.55;10.77;;;;;;;17.93;39.11;101922.81;4973648;28;20247;-70
2022/05/02 11:03:51;;;;;;;18.90;10.45;;;;;;;17.66;40.63;101923.03;4973031;28;20038;-69
2022/05/02 11:06:41;;;;;;;17.23;10.07;;;;;;;17.72;42.66;101921.69;4956382;28;20046;-70
2022/05/02 11:09:12;;;;;;;14.88;10.05;;;;;;;17.59;42.55;101914.53;4955300;28;20046;-71
2022/05/02 11:11:40;;;;;;;15.48;10.43;;;;;;;17.41;42.70;101913.22;4973491;28;20030;-71
2022/05/02 11:14:20;;;;;;;17.02;9.77;;;;;;;17.37;39.70;101918.97;4973591;28;20078;-68
2022/05/02 11:17:16;;;;;;;12.90;9.77;;;;;;;17.43;40.48;101911.28;4973491;28;20108;-71
2022/05/02 11:20:41;;;;;;;19.73;10.75;;;;;;;18.54;39.33;101907.16;4972832;28;20821;-71
2022/05/02 11:23:19;;;;;;;15.68;10.02;;;;;;;18.15;38.57;101900.38;4893846;29;20091;-70
2022/05/02 11:25:59;;;;;;;16.20;10.18;;;;;;;18.75;39.70;101890.25;4894448;29;20048;-70
2022/05/02 11:28:48;;;;;;;17.70;9.90;;;;;;;18.33;40.79;101893.53;4894928;29;20044;-71
2022/05/02 11:31:28;;;;;;;14.77;9.77;;;;;;;18.64;45.12;101896.50;4893441;29;20055;-70
2022/05/02 11:34:08;;;;;;;15.18;8.93;;;;;;;18.24;43.42;101893.41;4893810;29;20800;-70
2022/05/02 11:36:42;;;;;;;16.65;9.88;;;;;;;18.29;41.19;101897.47;4908029;29;20059;-70
2022/05/02 11:39:13;;;;;;;16.88;9.60;;;;;;;18.46;45.53;101889.84;4908980;29;20059;-70
2022/05/02 11:41:42;;;;;;;;;;;;;;;18.31;42.29;101891.94;4911043;29;21058;-70
2022/05/02 11:44:13;;;;;;;17.38;9.90;;;;;;;17.24;43.53;101897.47;4893229;29;19938;-69
2022/05/02 11:46:50;;;;;;;20.33;10.05;;;;;;;16.79;43.30;101892.66;4909324;29;20051;-69
2022/05/02 11:49:47;;;;;;;13.32;9.15;;;;;;;17.47;40.99;101896.59;4908262;29;20044;-68
2022/05/02 11:52:30;;;;;;;15.18;9.60;;;;;;;17.32;44.54;101897.75;4852350;29;20049;-68
2022/05/02 11:54:57;;;;;;;16.88;10.00;;;;;;;17.43;42.33;101886.16;4853941;29;20742;-69
2022/05/02 11:57:38;;;;;;;15.75;10.05;;;;;;;17.68;40.82;101893.25;4878154;29;21004;-69
2022/05/02 12:00:15;;;;;;;16.73;10.60;;;;;;;18.24;39.99;101885.31;4891039;29;21054;-69
2022/05/02 12:02:46;;;;;;;14.80;10.45;;;;;;;18.46;40.10;101888.00;4891507;29;20052;-69
2022/05/02 12:05:31;;;;;;;17.73;10.05;;;;;;;18.31;41.61;101890.09;4890193;29;20044;-70
2022/05/02 12:08:06;;;;;;;21.13;9.90;;;;;;;18.20;40.98;101892.78;4890334;29;20798;-69
2022/05/02 12:10:39;;;;;;;15.60;10.30;;;;;;;18.82;37.67;101889.59;4890590;29;20121;-70
2022/05/02 12:13:05;;;;;;;;;;;;;;;18.53;37.19;101883.84;4875217;29;20054;-69